Tiny Gold Firm Stuns Wall Street with High-Grade Gold Discovery
Surrounded on all sides by major gold deposits, see how this tiny exploration firm planted its flag in the sweet spot of an ultra-rich gold zone in Nevada’s famed mineral belt. Trading below US$0.50 per share and discovering gold, gold, and more gold with more news on the way, what’s not to like?
Details Here...
pixel

CVEO Insider Trading (Civeo)

Insider Ownership Percentage: 2.50%
Insider Buying (Last 12 Months): $495,331.90
Insider Selling (Last 12 Months): $1,652,235.80

Civeo Insider Trading History Chart

Civeo Share Price & Price History

$17.90
▼ -0.89 (-4.74%)
As of 03/1/2021 01:00 AM ET
Days: 30 | 90 | 365
The Next Food Tech Stock to Explode in 2021
A successful food tech industry entrepreneur as CEO, and a partnership with world renown “Iron Chef” Cat Cora could help push small-cap food tech company Home Bistro, Inc. to skyrocket territory.
Continue Reading
pixel

Civeo Insider Trading History

Transaction DateInsider NameTitleBuy/SellNumber of SharesAverage Share PriceTotal TransactionShares Held After TransactionDetails
3/1/2021Peter MccannSVPSell5,211$17.78$92,651.58
2/25/2021Lance TorgersonMajor ShareholderSell23,262$19.37$450,584.94  
2/22/2021Lance TorgersonMajor ShareholderSell7,137$19.46$138,886.02  
2/19/2021Lance TorgersonMajor ShareholderSell6,910$19.56$135,159.60  
2/17/2021Lance TorgersonMajor ShareholderSell18,120$19.62$355,514.40  
2/10/2021Lance TorgersonMajor ShareholderSell5,190$18.44$95,703.60  
2/8/2021Lance TorgersonMajor ShareholderSell5,005$17.95$89,839.75  
2/5/2021Lance TorgersonMajor ShareholderSell4,940$17.02$84,078.80  
12/1/2020Bradley J. DodsonCEOSell8,333$15.56$129,661.48  
11/16/2020Allan SchoeningSVPSell77,821$1.03$80,155.63245,471  
6/22/2020Martin LambertDirectorBuy183,190$0.63$115,409.70991,989  
6/19/2020Martin LambertDirectorBuy116,810$0.62$72,422.20991,989  
3/13/2020Bradley J DodsonCEOBuy50,000$0.69$34,500.001,793,735  
3/9/2020Martin LambertDirectorBuy300,000$0.91$273,000.00  
2/27/2020Peter MccannSVPSell53,958$1.20$64,749.60441,361  
8/28/2019Peter MccannSVPSell4,431$1.40$6,203.40375,574  
3/25/2019Peter MccannSVPSell125,000$2.04$255,000.00380,005  
3/5/2019Peter MccannSVPSell47,267$2.40$113,440.80505,005  
2/27/2019Peter MccannSVPSell38,392$2.71$104,042.32580,329  
2/22/2019Peter MccannSVPSell7,709$2.60$20,043.40119,090  
2/13/2019Peter MccannSVPSell16,506$2.48$40,934.88114,926  
See Full Table

SEC Filings (Institutional Ownership Changes) for Civeo (NYSE:CVEO)

Institutional Buying and Selling by Quarter

Civeo Institutional Trading History

Reporting DateHedge FundShares HeldMarket Value% of PortfolioQuarterly Change in SharesOwnership in Company
2/25/2021Dimensional Fund Advisors LP240,841$3.35M0.0%-92.2%1.695%
2/19/2021JPMorgan Chase & Co.4,424$61K0.0%-91.7%0.031%
2/19/2021Berman Capital Advisors LLC4,310$59K0.0%N/A0.030%
2/16/2021Weber Alan W193,750$2.69M0.8%-90.9%1.364%
2/16/2021Engineers Gate Manager LP10,820$0.15M0.0%N/A0.076%
2/12/2021LPL Financial LLC25,576$0.36M0.0%-80.1%0.180%
2/11/2021RBF Capital LLC125,629$1.75M0.2%-92.3%0.884%
2/11/2021Moors & Cabot Inc.42,501$0.58M0.0%-91.7%0.299%
2/10/2021Renaissance Technologies LLC864,848$12.02M0.0%-91.2%6.087%
2/10/2021Prescott Group Capital Management L.L.C.844,722$11.74M3.4%-91.1%5.945%
2/8/2021Royce & Associates LP37,499$0.52M0.0%-91.7%0.264%
2/3/2021Mad River Investors360,422$5.01M4.9%-91.8%2.537%
11/16/2020New Generation Advisors LLC4,563,702$3.08M6.8%+22.6%2.675%
11/13/2020Morgan Stanley208,624$0.14M0.0%+103.1%0.122%
11/12/2020Connor Clark & Lunn Investment Management Ltd.571,864$0.39M0.0%+4.6%0.335%
11/12/2020JPMorgan Chase & Co.53,102$35K0.0%N/A0.031%
11/12/2020Arrowstreet Capital Limited Partnership46,900$32K0.0%N/A0.027%
11/6/2020GSA Capital Partners LLP112,248$76K0.0%N/A0.066%
11/4/2020Raymond James & Associates715,885$0.48M0.0%-4.9%0.420%
10/30/2020WINTON GROUP Ltd99,361$67K0.0%+16.8%0.058%
10/29/2020Mad River Investors4,403,167$2.97M3.8%-3.1%2.581%
8/28/2020PNC Financial Services Group Inc.222,463$0.14M0.0%-14.5%0.130%
8/14/2020Balyasny Asset Management LLC191,493$0.12M0.0%N/A0.112%
8/10/2020Prescott Group Capital Management L.L.C.11,050,135$6.81M3.4%+29.1%6.478%
8/7/2020PNC Financial Services Group Inc.222,463$0.14M0.0%-14.5%0.130%
8/5/2020WINTON GROUP Ltd85,043$52K0.0%N/A0.050%
6/19/2020State Street Corp101,290$42K0.0%-58.8%0.059%
5/21/2020HighTower Advisors LLC59,879$25K0.0%N/A0.035%
5/18/2020RBF Capital LLC1,629,156$0.67M0.1%-6.1%0.955%
5/15/2020Cloverdale Capital Management LLC1,339,803$0.55M0.4%-67.1%0.785%
5/14/2020D.C. Capital Advisors Ltd3,000,000$1.24M8.2%+1.0%1.758%
5/13/2020Prescott Group Capital Management L.L.C.8,562,184$3.53M1.7%+29.4%5.018%
5/13/2020Connor Clark & Lunn Investment Management Ltd.584,544$0.24M0.0%-12.4%0.343%
5/13/2020Weber Alan W2,125,000$0.88M0.6%+60.4%1.245%
5/13/2020Horizon Kinetics Asset Management LLC42,495,252$17.50M0.8%+16.4%24.903%
5/12/2020Moors & Cabot Inc.458,600$0.18M0.0%-14.0%0.269%
5/12/2020JPMorgan Chase & Co.324,449$0.13M0.0%+22.5%0.190%
5/11/2020State Street Corp101,290$42K0.0%-58.8%0.059%
5/5/2020Mad River Investors4,538,167$1.87M2.9%+6.3%2.661%
4/21/2020Raymond James & Associates753,371$0.31M0.0%+8.0%0.442%
4/17/2020Wedbush Securities Inc.93,935$39K0.0%N/A0.055%
3/2/2020Connor Clark & Lunn Investment Management Ltd.667,173$0.86M0.0%+51.9%0.393%
2/20/2020Geode Capital Management LLC37,967$48K0.0%N/A0.022%
2/18/2020Algert Global LLC141,030$0.18M0.1%+316.8%0.083%
2/14/2020Cubist Systematic Strategies LLC23,488$30K0.0%+86.1%0.014%
2/14/2020Ancora Advisors LLC573,424$0.74M0.0%-3.9%0.338%
2/14/2020Marshall Wace LLP316,801$0.41M0.0%N/A0.187%
2/14/2020Goldman Sachs Group Inc.93,038$0.12M0.0%+162.8%0.055%
2/14/2020Oasis Management Co Ltd.1,487,755$1.92M2.3%N/A0.877%
2/13/2020Oxford Asset Management LLP125,636$0.16M0.0%N/A0.074%
2/13/2020Weber Alan W1,325,200$1.71M0.7%N/A0.782%
2/13/2020Boston Private Wealth LLC109,436$0.17M0.0%N/A0.065%
2/13/2020Renaissance Technologies LLC9,719,170$12.54M0.0%+11.8%5.732%
2/12/2020Connor Clark & Lunn Investment Management Ltd.667,173$0.86M0.0%+51.9%0.393%
2/12/2020Raymond James & Associates697,328$0.90M0.0%-8.8%0.411%
2/10/2020Natixis Advisors L.P.189,886$0.25M0.0%N/A0.112%
2/7/2020Prescott Group Capital Management L.L.C.6,618,800$8.54M3.0%+7.9%3.904%
2/7/2020Tower Research Capital LLC TRC28,019$36K0.0%+569.7%0.017%
2/7/2020PNC Financial Services Group Inc.254,342$0.33M0.0%-16.9%0.150%
2/6/2020State Street Corp245,599$0.32M0.0%-37.5%0.145%
2/4/2020Virtu Financial LLC102,515$0.13M0.0%N/A0.060%
1/30/2020Mad River Investors4,269,167$5.51M4.7%+20.6%2.518%
1/28/2020Moors & Cabot Inc.533,000$0.69M0.1%+7.7%0.314%
1/27/2020California Public Employees Retirement System215,400$0.28M0.0%-10.1%0.127%
1/1/2020Boston Partners761,581$0.97M0.0%-1.5%0.449%
11/27/2019Millennium Management LLC35,830$45K0.0%N/A0.021%
10/22/2019Moors & Cabot Inc.495,000$0.63M0.1%+34.7%0.292%
10/18/2019Zeke Capital Advisors LLC28,041$36K0.0%N/A0.017%
8/26/2019Boston Partners772,820$1.33M0.0%-6.0%0.456%
8/15/2019UBS Asset Management Americas Inc.75,627$0.13M0.0%+96.6%0.045%
8/14/2019Citadel Advisors LLC30,598$53K0.0%-61.1%0.018%
8/14/2019D. E. Shaw & Co. Inc.2,705,978$4.65M0.0%-4.8%1.596%
8/14/2019Morgan Stanley92,840$0.16M0.0%-8.0%0.055%
8/14/2019Cloverdale Capital Management LLC3,870,147$6.66M4.6%+1.2%2.283%
8/14/2019Algert Global LLC29,940$51K0.0%N/A0.018%
8/14/2019Invesco Ltd.406,194$0.70M0.0%-3.3%0.240%
8/14/2019Sterling Capital Management LLC3,494,161$6.01M0.1%-0.2%2.061%
8/13/2019Parametric Portfolio Associates LLC317,090$0.55M0.0%-5.9%0.187%
8/13/2019RBF Capital LLC480,460$0.83M0.1%N/A0.283%
8/13/2019Natixis Advisors L.P.170,982$0.29M0.0%-17.6%0.101%
8/12/2019Ancora Advisors LLC596,403$1.03M0.0%-14.9%0.352%
8/12/2019Renaissance Technologies LLC8,650,000$14.88M0.0%-1.1%5.102%
8/9/2019Prescott Group Capital Management L.L.C.7,306,791$12.57M3.1%-9.9%4.310%
8/7/2019Connor Clark & Lunn Investment Management Ltd.449,916$0.77M0.0%-8.6%0.265%
8/7/2019Mad River Investors3,543,267$6.09M5.3%+17.7%2.090%
8/7/2019JPMorgan Chase & Co.21,090$34K0.0%N/A0.012%
8/5/2019Brave Asset Management Inc.20,000$34K0.0%N/A0.012%
8/2/2019Envestnet Asset Management Inc.74,777$0.13M0.0%+148.7%0.044%
6/30/2019Moors & Cabot Inc.367,350$0.63M0.1%+12.8%0.217%
6/30/2019Arlington Partners LLC167,000$0.29M0.1%N/A0.099%
6/16/2019FMR LLC17,110,018$35.93M0.0%-0.9%10.106%
5/13/2019Group One Trading L.P.18,178$38K0.0%-26.9%0.011%
5/10/2019Prescott Group Capital Management L.L.C.8,106,791$17.02M3.5%-0.4%4.788%
5/8/2019Freestone Capital Holdings LLC172,377$0.36M0.0%+6.2%0.102%
5/8/2019Connor Clark & Lunn Investment Management Ltd.492,250$1.03M0.0%-11.5%0.291%
5/7/2019Miracle Mile Advisors LLC40,000$84K0.0%-45.9%0.024%
5/7/2019Measured Wealth Private Client Group LLC22,981$48K0.0%+66.8%0.014%
5/6/2019Raymond James & Associates783,348$1.65M0.0%+70.2%0.463%
5/6/2019Moors & Cabot Inc.325,550$0.68M0.1%+2.9%0.192%
5/6/2019Mad River Investors3,010,600$6.32M5.6%+13.9%1.778%
Data available starting January 2016

See Full Table
Civeo logo
Civeo Corporation provides hospitality services to the natural resource industry in Canada, Australia, and the United States. The company develops lodges and villages; and mobile accommodations, including modular, skid-mounted accommodation, and central facilities that provide long-term and temporary work force accommodations. It also offers food, housekeeping, and maintenance services, as well as laundry, facility management and maintenance, water and wastewater treatment, power generation, communication systems, security, and logistics services; recreation facilities; and camp management services, including fresh water and sewage hauling services. In addition, the company provides site selection, permitting, engineering and designing, manufacturing management, and site construction services, as well as catering and managed services. It owns and operates 28 lodges and villages with approximately 30,000 rooms and a fleet of mobile accommodation assets. The company serves oil, mining, engineering, and oilfield and mining service companies. The company is headquartered in Houston, Texas.
Read More

Today's Range

Now: $17.90
$16.85
$18.34

50 Day Range

MA: $17.69
$13.89
$20.40

52 Week Range

Now: $17.90
$4.08
$20.67

Volume

142,368 shs

Average Volume

38,271 shs

Market Capitalization

$254.34 million

P/E Ratio

N/A

Dividend Yield

N/A

Beta

4.02

Who are the company insiders with the largest holdings of Civeo?

Civeo's top insider investors include:
  1. Bradley J Dodson (CEO)
  2. Martin Lambert (Director)
  3. Peter Mccann (SVP)
  4. Allan Schoening (SVP)
  5. Bradley J Dodson (CEO)
  6. Lance Torgerson (Major Shareholder)

Who are the major institutional investors of Civeo?

Civeo's top institutional investors include:
  1. Renaissance Technologies LLC — 6.09%
  2. Prescott Group Capital Management L.L.C. — 5.94%
  3. Mad River Investors — 2.54%
  4. Dimensional Fund Advisors LP — 1.69%
  5. Weber Alan W — 1.36%
  6. RBF Capital LLC — 0.88%

Which institutional investors are selling Civeo stock?

Within the last quarter, CVEO stock was sold by these institutional investors:
  1. Renaissance Technologies LLC
  2. Prescott Group Capital Management L.L.C.
  3. Mad River Investors
  4. Dimensional Fund Advisors LP
  5. Weber Alan W
  6. RBF Capital LLC
  7. Moors & Cabot Inc.
  8. Royce & Associates LP
In the last year, company insiders that have sold Civeo company stock include:
  1. Bradley J Dodson (CEO)
  2. Martin Lambert (Director)
  3. Peter Mccann (SVP)

Which institutional investors are buying Civeo stock?

During the previous quarter, CVEO stock was bought by institutional investors including:
  1. Engineers Gate Manager LP
  2. Berman Capital Advisors LLC
During the previous year, these company insiders have bought Civeo stock:
  1. Bradley J Dodson (CEO)
  2. Martin Lambert (Director)
Tiny Gold Firm Stuns Wall Street with High-Grade Gold Discovery
Surrounded on all sides by major gold deposits, see how this tiny exploration firm planted its flag in the sweet spot of an ultra-rich gold zone in Nevada’s famed mineral belt. Trading below US$0.50 per share and discovering gold, gold, and more gold with more news on the way, what’s not to like?
Details Here...
pixel